<?xml version="1.0" encoding="UTF-8" standalone="no" ?>
<gpx xmlns="http://www.topografix.com/GPX/1/1" xmlns:xsi="http://www.w3.org/2001/XMLSchema-instance" xsi:schemaLocation="http://www.topografix.com/GPX/1/1 http://www.topografix.com/GPX/1/1/gpx.xsd" version="1.1" creator="VisuGPX - https://www.visugpx.com">
  <metadata>
    <name>Vacances 2021</name>
  </metadata>
  <trk>
    <name><![CDATA[Journal actif: 2021-07-29 12:39]]></name>
    <trkseg>
      <trkpt lat="49.44268" lon="1.09094">
        <ele>7.35</ele>
        <time>2021-07-29T14:39:34Z</time>
      </trkpt>
      <trkpt lat="49.44337" lon="1.09135">
        <ele>7.83</ele>
        <time>2021-07-29T14:39:48Z</time>
      </trkpt>
      <trkpt lat="49.44389" lon="1.09166">
        <ele>9.27</ele>
        <time>2021-07-29T14:40:00Z</time>
      </trkpt>
      <trkpt lat="49.44398" lon="1.09171">
        <ele>11.19</ele>
        <time>2021-07-29T14:40:12Z</time>
      </trkpt>
      <trkpt lat="49.44409" lon="1.09178">
        <ele>11.67</ele>
        <time>2021-07-29T14:40:25Z</time>
      </trkpt>
      <trkpt lat="49.44417" lon="1.09183">
        <ele>12.15</ele>
        <time>2021-07-29T14:40:27Z</time>
      </trkpt>
      <trkpt lat="49.44421" lon="1.09186">
        <ele>12.63</ele>
        <time>2021-07-29T14:40:28Z</time>
      </trkpt>
      <trkpt lat="49.44446" lon="1.09201">
        <ele>14.08</ele>
        <time>2021-07-29T14:40:37Z</time>
      </trkpt>
      <trkpt lat="49.44451" lon="1.09204">
        <ele>14.56</ele>
        <time>2021-07-29T14:41:27Z</time>
      </trkpt>
      <trkpt lat="49.44459" lon="1.09209">
        <ele>14.56</ele>
        <time>2021-07-29T14:41:37Z</time>
      </trkpt>
      <trkpt lat="49.44464" lon="1.09213">
        <ele>14.56</ele>
        <time>2021-07-29T14:41:41Z</time>
      </trkpt>
      <trkpt lat="49.4447" lon="1.09203">
        <ele>14.56</ele>
        <time>2021-07-29T14:41:42Z</time>
      </trkpt>
      <trkpt lat="49.4447" lon="1.09203">
        <ele>14.56</ele>
        <time>2021-07-29T14:41:43Z</time>
      </trkpt>
      <trkpt lat="49.44471" lon="1.09196">
        <ele>14.56</ele>
        <time>2021-07-29T14:41:44Z</time>
      </trkpt>
      <trkpt lat="49.44472" lon="1.09189">
        <ele>14.56</ele>
        <time>2021-07-29T14:41:45Z</time>
      </trkpt>
      <trkpt lat="49.44493" lon="1.09081">
        <ele>15.52</ele>
        <time>2021-07-29T14:41:55Z</time>
      </trkpt>
      <trkpt lat="49.44537" lon="1.08848">
        <ele>16</ele>
        <time>2021-07-29T14:42:13Z</time>
      </trkpt>
      <trkpt lat="49.44566" lon="1.08693">
        <ele>16.48</ele>
        <time>2021-07-29T14:42:25Z</time>
      </trkpt>
      <trkpt lat="49.44571" lon="1.08675">
        <ele>16.48</ele>
        <time>2021-07-29T14:42:29Z</time>
      </trkpt>
      <trkpt lat="49.44573" lon="1.08668">
        <ele>16.48</ele>
        <time>2021-07-29T14:42:30Z</time>
      </trkpt>
      <trkpt lat="49.44577" lon="1.08655">
        <ele>16.48</ele>
        <time>2021-07-29T14:42:32Z</time>
      </trkpt>
      <trkpt lat="49.44579" lon="1.08648">
        <ele>16.96</ele>
        <time>2021-07-29T14:42:33Z</time>
      </trkpt>
      <trkpt lat="49.44579" lon="1.08647">
        <ele>16.96</ele>
        <time>2021-07-29T14:42:34Z</time>
      </trkpt>
      <trkpt lat="49.44575" lon="1.08642">
        <ele>17.44</ele>
        <time>2021-07-29T14:42:35Z</time>
      </trkpt>
      <trkpt lat="49.44571" lon="1.08639">
        <ele>17.44</ele>
        <time>2021-07-29T14:42:36Z</time>
      </trkpt>
      <trkpt lat="49.44567" lon="1.08634">
        <ele>17.44</ele>
        <time>2021-07-29T14:42:37Z</time>
      </trkpt>
      <trkpt lat="49.44564" lon="1.08631">
        <ele>17.44</ele>
        <time>2021-07-29T14:42:38Z</time>
      </trkpt>
      <trkpt lat="49.44543" lon="1.08616">
        <ele>15.52</ele>
        <time>2021-07-29T14:42:48Z</time>
      </trkpt>
      <trkpt lat="49.44523" lon="1.08601">
        <ele>13.6</ele>
        <time>2021-07-29T14:42:57Z</time>
      </trkpt>
      <trkpt lat="49.44466" lon="1.08565">
        <ele>6.39</ele>
        <time>2021-07-29T14:43:08Z</time>
      </trkpt>
      <trkpt lat="49.44372" lon="1.08508">
        <ele>-3.71</ele>
        <time>2021-07-29T14:43:22Z</time>
      </trkpt>
      <trkpt lat="49.44322" lon="1.08479">
        <ele>-8.51</ele>
        <time>2021-07-29T14:43:30Z</time>
      </trkpt>
      <trkpt lat="49.44318" lon="1.08476">
        <ele>-4.67</ele>
        <time>2021-07-29T14:43:41Z</time>
      </trkpt>
      <trkpt lat="49.44304" lon="1.08468">
        <ele>-5.63</ele>
        <time>2021-07-29T14:43:59Z</time>
      </trkpt>
      <trkpt lat="49.44284" lon="1.08454">
        <ele>-5.63</ele>
        <time>2021-07-29T14:44:16Z</time>
      </trkpt>
      <trkpt lat="49.44245" lon="1.08419">
        <ele>-4.67</ele>
        <time>2021-07-29T14:44:24Z</time>
      </trkpt>
      <trkpt lat="49.4424" lon="1.08411">
        <ele>-4.67</ele>
        <time>2021-07-29T14:44:25Z</time>
      </trkpt>
      <trkpt lat="49.44236" lon="1.08405">
        <ele>-4.67</ele>
        <time>2021-07-29T14:44:26Z</time>
      </trkpt>
      <trkpt lat="49.44232" lon="1.08386">
        <ele>-5.15</ele>
        <time>2021-07-29T14:44:27Z</time>
      </trkpt>
      <trkpt lat="49.44233" lon="1.08378">
        <ele>-4.19</ele>
        <time>2021-07-29T14:44:28Z</time>
      </trkpt>
      <trkpt lat="49.44235" lon="1.08369">
        <ele>-4.19</ele>
        <time>2021-07-29T14:44:29Z</time>
      </trkpt>
      <trkpt lat="49.44237" lon="1.0836">
        <ele>-3.71</ele>
        <time>2021-07-29T14:44:30Z</time>
      </trkpt>
      <trkpt lat="49.44249" lon="1.0829">
        <ele>-1.79</ele>
        <time>2021-07-29T14:44:40Z</time>
      </trkpt>
      <trkpt lat="49.44251" lon="1.08281">
        <ele>-1.3</ele>
        <time>2021-07-29T14:44:42Z</time>
      </trkpt>
      <trkpt lat="49.44248" lon="1.08265">
        <ele>-1.3</ele>
        <time>2021-07-29T14:44:43Z</time>
      </trkpt>
      <trkpt lat="49.44245" lon="1.0826">
        <ele>-0.82</ele>
        <time>2021-07-29T14:44:44Z</time>
      </trkpt>
      <trkpt lat="49.44241" lon="1.08255">
        <ele>-0.82</ele>
        <time>2021-07-29T14:44:45Z</time>
      </trkpt>
      <trkpt lat="49.44236" lon="1.0825">
        <ele>-0.34</ele>
        <time>2021-07-29T14:44:46Z</time>
      </trkpt>
      <trkpt lat="49.44236" lon="1.0825">
        <ele>0.62</ele>
        <time>2021-07-29T14:44:47Z</time>
      </trkpt>
      <trkpt lat="49.4423" lon="1.08245">
        <ele>1.1</ele>
        <time>2021-07-29T14:44:48Z</time>
      </trkpt>
      <trkpt lat="49.44115" lon="1.08176">
        <ele>6.87</ele>
        <time>2021-07-29T14:44:59Z</time>
      </trkpt>
      <trkpt lat="49.43983" lon="1.08079">
        <ele>9.27</ele>
        <time>2021-07-29T14:45:14Z</time>
      </trkpt>
      <trkpt lat="49.43955" lon="1.08055">
        <ele>8.31</ele>
        <time>2021-07-29T14:45:21Z</time>
      </trkpt>
      <trkpt lat="49.43915" lon="1.08024">
        <ele>7.35</ele>
        <time>2021-07-29T14:45:29Z</time>
      </trkpt>
      <trkpt lat="49.43822" lon="1.07936">
        <ele>7.35</ele>
        <time>2021-07-29T14:45:42Z</time>
      </trkpt>
      <trkpt lat="49.43817" lon="1.07931">
        <ele>7.35</ele>
        <time>2021-07-29T14:45:43Z</time>
      </trkpt>
      <trkpt lat="49.43788" lon="1.079">
        <ele>8.79</ele>
        <time>2021-07-29T14:45:53Z</time>
      </trkpt>
      <trkpt lat="49.43788" lon="1.079">
        <ele>8.79</ele>
        <time>2021-07-29T14:46:19Z</time>
      </trkpt>
      <trkpt lat="49.43768" lon="1.07882">
        <ele>8.31</ele>
        <time>2021-07-29T14:46:28Z</time>
      </trkpt>
      <trkpt lat="49.43684" lon="1.07809">
        <ele>8.79</ele>
        <time>2021-07-29T14:46:41Z</time>
      </trkpt>
      <trkpt lat="49.4362" lon="1.07751">
        <ele>9.27</ele>
        <time>2021-07-29T14:46:55Z</time>
      </trkpt>
      <trkpt lat="49.43556" lon="1.07695">
        <ele>8.79</ele>
        <time>2021-07-29T14:47:06Z</time>
      </trkpt>
      <trkpt lat="49.43518" lon="1.07659">
        <ele>8.79</ele>
        <time>2021-07-29T14:47:14Z</time>
      </trkpt>
      <trkpt lat="49.43485" lon="1.07623">
        <ele>8.31</ele>
        <time>2021-07-29T14:47:22Z</time>
      </trkpt>
      <trkpt lat="49.43482" lon="1.07618">
        <ele>8.31</ele>
        <time>2021-07-29T14:47:23Z</time>
      </trkpt>
      <trkpt lat="49.4348" lon="1.07611">
        <ele>8.31</ele>
        <time>2021-07-29T14:47:24Z</time>
      </trkpt>
      <trkpt lat="49.43478" lon="1.07604">
        <ele>8.31</ele>
        <time>2021-07-29T14:47:25Z</time>
      </trkpt>
      <trkpt lat="49.43477" lon="1.07597">
        <ele>8.31</ele>
        <time>2021-07-29T14:47:26Z</time>
      </trkpt>
      <trkpt lat="49.43478" lon="1.07589">
        <ele>8.31</ele>
        <time>2021-07-29T14:47:27Z</time>
      </trkpt>
      <trkpt lat="49.43489" lon="1.0746">
        <ele>8.79</ele>
        <time>2021-07-29T14:47:38Z</time>
      </trkpt>
      <trkpt lat="49.43487" lon="1.07265">
        <ele>8.31</ele>
        <time>2021-07-29T14:47:51Z</time>
      </trkpt>
      <trkpt lat="49.43491" lon="1.07226">
        <ele>8.31</ele>
        <time>2021-07-29T14:47:56Z</time>
      </trkpt>
      <trkpt lat="49.43492" lon="1.0722">
        <ele>8.31</ele>
        <time>2021-07-29T14:47:57Z</time>
      </trkpt>
      <trkpt lat="49.43501" lon="1.0721">
        <ele>8.31</ele>
        <time>2021-07-29T14:47:59Z</time>
      </trkpt>
      <trkpt lat="49.43506" lon="1.07198">
        <ele>8.79</ele>
        <time>2021-07-29T14:48:00Z</time>
      </trkpt>
      <trkpt lat="49.43508" lon="1.07187">
        <ele>8.79</ele>
        <time>2021-07-29T14:48:01Z</time>
      </trkpt>
      <trkpt lat="49.4351" lon="1.07172">
        <ele>8.79</ele>
        <time>2021-07-29T14:48:02Z</time>
      </trkpt>
      <trkpt lat="49.43506" lon="1.07161">
        <ele>8.79</ele>
        <time>2021-07-29T14:48:03Z</time>
      </trkpt>
      <trkpt lat="49.43502" lon="1.07152">
        <ele>8.79</ele>
        <time>2021-07-29T14:48:04Z</time>
      </trkpt>
      <trkpt lat="49.43496" lon="1.07144">
        <ele>8.79</ele>
        <time>2021-07-29T14:48:05Z</time>
      </trkpt>
      <trkpt lat="49.4349" lon="1.07137">
        <ele>8.79</ele>
        <time>2021-07-29T14:48:06Z</time>
      </trkpt>
      <trkpt lat="49.43488" lon="1.07123">
        <ele>8.79</ele>
        <time>2021-07-29T14:48:07Z</time>
      </trkpt>
      <trkpt lat="49.43486" lon="1.0711">
        <ele>8.31</ele>
        <time>2021-07-29T14:48:08Z</time>
      </trkpt>
      <trkpt lat="49.43484" lon="1.07082">
        <ele>7.83</ele>
        <time>2021-07-29T14:48:09Z</time>
      </trkpt>
      <trkpt lat="49.43467" lon="1.0693">
        <ele>5.91</ele>
        <time>2021-07-29T14:48:19Z</time>
      </trkpt>
      <trkpt lat="49.43428" lon="1.06666">
        <ele>3.5</ele>
        <time>2021-07-29T14:48:31Z</time>
      </trkpt>
      <trkpt lat="49.43359" lon="1.0623">
        <ele>3.02</ele>
        <time>2021-07-29T14:48:47Z</time>
      </trkpt>
      <trkpt lat="49.43293" lon="1.06048">
        <ele>6.39</ele>
        <time>2021-07-29T14:48:55Z</time>
      </trkpt>
      <trkpt lat="49.43157" lon="1.05824">
        <ele>5.42</ele>
        <time>2021-07-29T14:49:05Z</time>
      </trkpt>
      <trkpt lat="49.43014" lon="1.05691">
        <ele>3.02</ele>
        <time>2021-07-29T14:49:14Z</time>
      </trkpt>
      <trkpt lat="49.42863" lon="1.05629">
        <ele>-0.82</ele>
        <time>2021-07-29T14:49:22Z</time>
      </trkpt>
      <trkpt lat="49.42711" lon="1.05585">
        <ele>-0.34</ele>
        <time>2021-07-29T14:49:33Z</time>
      </trkpt>
      <trkpt lat="49.42576" lon="1.05474">
        <ele>3.98</ele>
        <time>2021-07-29T14:49:42Z</time>
      </trkpt>
      <trkpt lat="49.4245" lon="1.05298">
        <ele>6.39</ele>
        <time>2021-07-29T14:49:51Z</time>
      </trkpt>
      <trkpt lat="49.42329" lon="1.052">
        <ele>4.94</ele>
        <time>2021-07-29T14:49:58Z</time>
      </trkpt>
      <trkpt lat="49.42172" lon="1.05144">
        <ele>5.91</ele>
        <time>2021-07-29T14:50:06Z</time>
      </trkpt>
      <trkpt lat="49.4203" lon="1.05034">
        <ele>7.83</ele>
        <time>2021-07-29T14:50:14Z</time>
      </trkpt>
      <trkpt lat="49.41816" lon="1.04803">
        <ele>11.67</ele>
        <time>2021-07-29T14:50:26Z</time>
      </trkpt>
      <trkpt lat="49.41578" lon="1.04547">
        <ele>8.79</ele>
        <time>2021-07-29T14:50:41Z</time>
      </trkpt>
      <trkpt lat="49.4136" lon="1.04313">
        <ele>6.87</ele>
        <time>2021-07-29T14:50:54Z</time>
      </trkpt>
      <trkpt lat="49.41173" lon="1.04111">
        <ele>12.15</ele>
        <time>2021-07-29T14:51:06Z</time>
      </trkpt>
      <trkpt lat="49.40968" lon="1.03901">
        <ele>12.63</ele>
        <time>2021-07-29T14:51:19Z</time>
      </trkpt>
      <trkpt lat="49.40649" lon="1.03621">
        <ele>15.52</ele>
        <time>2021-07-29T14:51:38Z</time>
      </trkpt>
      <trkpt lat="49.40426" lon="1.03446">
        <ele>13.6</ele>
        <time>2021-07-29T14:51:52Z</time>
      </trkpt>
      <trkpt lat="49.40216" lon="1.03307">
        <ele>17.92</ele>
        <time>2021-07-29T14:52:03Z</time>
      </trkpt>
      <trkpt lat="49.39966" lon="1.03189">
        <ele>19.36</ele>
        <time>2021-07-29T14:52:15Z</time>
      </trkpt>
      <trkpt lat="49.39806" lon="1.03189">
        <ele>25.13</ele>
        <time>2021-07-29T14:52:23Z</time>
      </trkpt>
      <trkpt lat="49.39664" lon="1.03257">
        <ele>29.46</ele>
        <time>2021-07-29T14:52:30Z</time>
      </trkpt>
      <trkpt lat="49.3954" lon="1.03384">
        <ele>32.82</ele>
        <time>2021-07-29T14:52:37Z</time>
      </trkpt>
      <trkpt lat="49.39373" lon="1.03668">
        <ele>40.03</ele>
        <time>2021-07-29T14:52:49Z</time>
      </trkpt>
      <trkpt lat="49.39173" lon="1.04024">
        <ele>50.61</ele>
        <time>2021-07-29T14:53:05Z</time>
      </trkpt>
      <trkpt lat="49.38961" lon="1.04394">
        <ele>54.93</ele>
        <time>2021-07-29T14:53:23Z</time>
      </trkpt>
      <trkpt lat="49.38809" lon="1.04588">
        <ele>58.78</ele>
        <time>2021-07-29T14:53:33Z</time>
      </trkpt>
      <trkpt lat="49.38607" lon="1.04745">
        <ele>61.18</ele>
        <time>2021-07-29T14:53:43Z</time>
      </trkpt>
      <trkpt lat="49.38406" lon="1.04812">
        <ele>64.55</ele>
        <time>2021-07-29T14:53:53Z</time>
      </trkpt>
      <trkpt lat="49.38144" lon="1.04835">
        <ele>63.58</ele>
        <time>2021-07-29T14:54:06Z</time>
      </trkpt>
      <trkpt lat="49.37949" lon="1.04803">
        <ele>63.1</ele>
        <time>2021-07-29T14:54:15Z</time>
      </trkpt>
      <trkpt lat="49.37671" lon="1.04688">
        <ele>69.83</ele>
        <time>2021-07-29T14:54:28Z</time>
      </trkpt>
      <trkpt lat="49.37409" lon="1.04516">
        <ele>79.45</ele>
        <time>2021-07-29T14:54:41Z</time>
      </trkpt>
      <trkpt lat="49.37078" lon="1.04277">
        <ele>85.21</ele>
        <time>2021-07-29T14:54:59Z</time>
      </trkpt>
      <trkpt lat="49.36615" lon="1.03947">
        <ele>79.93</ele>
        <time>2021-07-29T14:55:22Z</time>
      </trkpt>
      <trkpt lat="49.36401" lon="1.03797">
        <ele>86.18</ele>
        <time>2021-07-29T14:55:34Z</time>
      </trkpt>
      <trkpt lat="49.36107" lon="1.03577">
        <ele>99.15</ele>
        <time>2021-07-29T14:55:52Z</time>
      </trkpt>
      <trkpt lat="49.35902" lon="1.03434">
        <ele>110.69</ele>
        <time>2021-07-29T14:56:06Z</time>
      </trkpt>
      <trkpt lat="49.35669" lon="1.0327">
        <ele>112.13</ele>
        <time>2021-07-29T14:56:20Z</time>
      </trkpt>
      <trkpt lat="49.35546" lon="1.03159">
        <ele>111.65</ele>
        <time>2021-07-29T14:56:27Z</time>
      </trkpt>
      <trkpt lat="49.35409" lon="1.02972">
        <ele>115.01</ele>
        <time>2021-07-29T14:56:35Z</time>
      </trkpt>
      <trkpt lat="49.3516" lon="1.02565">
        <ele>118.86</ele>
        <time>2021-07-29T14:56:50Z</time>
      </trkpt>
      <trkpt lat="49.34835" lon="1.02026">
        <ele>125.11</ele>
        <time>2021-07-29T14:57:11Z</time>
      </trkpt>
      <trkpt lat="49.3457" lon="1.0158">
        <ele>122.71</ele>
        <time>2021-07-29T14:57:27Z</time>
      </trkpt>
      <trkpt lat="49.34475" lon="1.01317">
        <ele>122.71</ele>
        <time>2021-07-29T14:57:35Z</time>
      </trkpt>
      <trkpt lat="49.34362" lon="1.00837">
        <ele>131.36</ele>
        <time>2021-07-29T14:57:49Z</time>
      </trkpt>
      <trkpt lat="49.3419" lon="1.00093">
        <ele>136.64</ele>
        <time>2021-07-29T14:58:11Z</time>
      </trkpt>
      <trkpt lat="49.3401" lon="0.99305">
        <ele>140.97</ele>
        <time>2021-07-29T14:58:34Z</time>
      </trkpt>
      <trkpt lat="49.33896" lon="0.98734">
        <ele>140.49</ele>
        <time>2021-07-29T14:58:51Z</time>
      </trkpt>
      <trkpt lat="49.33859" lon="0.9837">
        <ele>136.64</ele>
        <time>2021-07-29T14:59:02Z</time>
      </trkpt>
      <trkpt lat="49.33839" lon="0.97922">
        <ele>128.95</ele>
        <time>2021-07-29T14:59:16Z</time>
      </trkpt>
      <trkpt lat="49.33808" lon="0.9731">
        <ele>125.11</ele>
        <time>2021-07-29T14:59:33Z</time>
      </trkpt>
      <trkpt lat="49.33817" lon="0.96978">
        <ele>117.42</ele>
        <time>2021-07-29T14:59:42Z</time>
      </trkpt>
      <trkpt lat="49.33871" lon="0.96648">
        <ele>107.32</ele>
        <time>2021-07-29T14:59:51Z</time>
      </trkpt>
      <trkpt lat="49.33921" lon="0.96283">
        <ele>99.15</ele>
        <time>2021-07-29T15:00:01Z</time>
      </trkpt>
      <trkpt lat="49.33914" lon="0.95941">
        <ele>96.75</ele>
        <time>2021-07-29T15:00:10Z</time>
      </trkpt>
      <trkpt lat="49.33889" lon="0.95515">
        <ele>107.32</ele>
        <time>2021-07-29T15:00:22Z</time>
      </trkpt>
      <trkpt lat="49.33907" lon="0.95119">
        <ele>114.05</ele>
        <time>2021-07-29T15:00:34Z</time>
      </trkpt>
      <trkpt lat="49.33963" lon="0.94699">
        <ele>118.86</ele>
        <time>2021-07-29T15:00:48Z</time>
      </trkpt>
      <trkpt lat="49.34043" lon="0.94062">
        <ele>125.59</ele>
        <time>2021-07-29T15:01:10Z</time>
      </trkpt>
      <trkpt lat="49.34123" lon="0.93509">
        <ele>127.03</ele>
        <time>2021-07-29T15:01:29Z</time>
      </trkpt>
      <trkpt lat="49.34172" lon="0.93237">
        <ele>125.11</ele>
        <time>2021-07-29T15:01:39Z</time>
      </trkpt>
      <trkpt lat="49.34258" lon="0.93067">
        <ele>120.3</ele>
        <time>2021-07-29T15:01:49Z</time>
      </trkpt>
      <trkpt lat="49.34269" lon="0.93031">
        <ele>120.78</ele>
        <time>2021-07-29T15:01:51Z</time>
      </trkpt>
      <trkpt lat="49.34269" lon="0.93031">
        <ele>120.3</ele>
        <time>2021-07-29T15:01:52Z</time>
      </trkpt>
      <trkpt lat="49.34283" lon="0.9301">
        <ele>119.82</ele>
        <time>2021-07-29T15:01:57Z</time>
      </trkpt>
      <trkpt lat="49.34287" lon="0.93009">
        <ele>119.34</ele>
        <time>2021-07-29T15:01:58Z</time>
      </trkpt>
      <trkpt lat="49.34292" lon="0.93009">
        <ele>119.82</ele>
        <time>2021-07-29T15:01:59Z</time>
      </trkpt>
      <trkpt lat="49.34295" lon="0.93008">
        <ele>120.3</ele>
        <time>2021-07-29T15:02:00Z</time>
      </trkpt>
      <trkpt lat="49.34305" lon="0.93019">
        <ele>119.82</ele>
        <time>2021-07-29T15:02:01Z</time>
      </trkpt>
      <trkpt lat="49.34319" lon="0.93032">
        <ele>120.3</ele>
        <time>2021-07-29T15:02:02Z</time>
      </trkpt>
      <trkpt lat="49.34319" lon="0.93032">
        <ele>120.3</ele>
        <time>2021-07-29T15:02:03Z</time>
      </trkpt>
      <trkpt lat="49.34419" lon="0.93139">
        <ele>119.82</ele>
        <time>2021-07-29T15:02:13Z</time>
      </trkpt>
      <trkpt lat="49.34455" lon="0.93184">
        <ele>120.78</ele>
        <time>2021-07-29T15:02:19Z</time>
      </trkpt>
      <trkpt lat="49.34459" lon="0.93191">
        <ele>120.3</ele>
        <time>2021-07-29T15:02:20Z</time>
      </trkpt>
      <trkpt lat="49.34467" lon="0.93207">
        <ele>120.78</ele>
        <time>2021-07-29T15:02:24Z</time>
      </trkpt>
      <trkpt lat="49.34469" lon="0.93211">
        <ele>120.78</ele>
        <time>2021-07-29T15:02:25Z</time>
      </trkpt>
      <trkpt lat="49.34466" lon="0.93242">
        <ele>120.78</ele>
        <time>2021-07-29T15:02:27Z</time>
      </trkpt>
      <trkpt lat="49.34466" lon="0.93242">
        <ele>120.78</ele>
        <time>2021-07-29T15:02:28Z</time>
      </trkpt>
      <trkpt lat="49.34469" lon="0.93249">
        <ele>120.78</ele>
        <time>2021-07-29T15:02:29Z</time>
      </trkpt>
      <trkpt lat="49.34472" lon="0.93255">
        <ele>120.78</ele>
        <time>2021-07-29T15:02:30Z</time>
      </trkpt>
      <trkpt lat="49.34478" lon="0.93255">
        <ele>120.3</ele>
        <time>2021-07-29T15:02:31Z</time>
      </trkpt>
      <trkpt lat="49.34483" lon="0.93255">
        <ele>119.82</ele>
        <time>2021-07-29T15:02:32Z</time>
      </trkpt>
      <trkpt lat="49.34488" lon="0.93249">
        <ele>119.34</ele>
        <time>2021-07-29T15:02:33Z</time>
      </trkpt>
      <trkpt lat="49.3449" lon="0.93241">
        <ele>119.34</ele>
        <time>2021-07-29T15:02:34Z</time>
      </trkpt>
      <trkpt lat="49.34493" lon="0.93227">
        <ele>118.86</ele>
        <time>2021-07-29T15:02:35Z</time>
      </trkpt>
      <trkpt lat="49.3456" lon="0.93134">
        <ele>114.53</ele>
        <time>2021-07-29T15:02:44Z</time>
      </trkpt>
      <trkpt lat="49.34689" lon="0.92962">
        <ele>118.86</ele>
        <time>2021-07-29T15:02:56Z</time>
      </trkpt>
      <trkpt lat="49.34869" lon="0.92712">
        <ele>126.55</ele>
        <time>2021-07-29T15:03:11Z</time>
      </trkpt>
      <trkpt lat="49.34924" lon="0.92568">
        <ele>127.99</ele>
        <time>2021-07-29T15:03:18Z</time>
      </trkpt>
      <trkpt lat="49.35011" lon="0.92277">
        <ele>124.15</ele>
        <time>2021-07-29T15:03:30Z</time>
      </trkpt>
      <trkpt lat="49.35092" lon="0.91984">
        <ele>122.22</ele>
        <time>2021-07-29T15:03:42Z</time>
      </trkpt>
      <trkpt lat="49.35194" lon="0.91677">
        <ele>124.63</ele>
        <time>2021-07-29T15:03:57Z</time>
      </trkpt>
      <trkpt lat="49.35296" lon="0.91458">
        <ele>127.99</ele>
        <time>2021-07-29T15:04:09Z</time>
      </trkpt>
      <trkpt lat="49.35302" lon="0.91442">
        <ele>127.99</ele>
        <time>2021-07-29T15:04:10Z</time>
      </trkpt>
      <trkpt lat="49.35306" lon="0.91424">
        <ele>127.99</ele>
        <time>2021-07-29T15:04:11Z</time>
      </trkpt>
      <trkpt lat="49.35337" lon="0.91213">
        <ele>131.36</ele>
        <time>2021-07-29T15:04:22Z</time>
      </trkpt>
      <trkpt lat="49.35369" lon="0.90954">
        <ele>135.68</ele>
        <time>2021-07-29T15:04:35Z</time>
      </trkpt>
      <trkpt lat="49.35376" lon="0.90744">
        <ele>138.57</ele>
        <time>2021-07-29T15:04:45Z</time>
      </trkpt>
      <trkpt lat="49.35391" lon="0.90388">
        <ele>139.53</ele>
        <time>2021-07-29T15:05:00Z</time>
      </trkpt>
      <trkpt lat="49.3544" lon="0.90123">
        <ele>136.16</ele>
        <time>2021-07-29T15:05:11Z</time>
      </trkpt>
      <trkpt lat="49.35552" lon="0.8978">
        <ele>128.95</ele>
        <time>2021-07-29T15:05:25Z</time>
      </trkpt>
      <trkpt lat="49.35619" lon="0.89564">
        <ele>129.43</ele>
        <time>2021-07-29T15:05:34Z</time>
      </trkpt>
      <trkpt lat="49.35644" lon="0.89433">
        <ele>129.43</ele>
        <time>2021-07-29T15:05:40Z</time>
      </trkpt>
      <trkpt lat="49.35648" lon="0.89393">
        <ele>129.43</ele>
        <time>2021-07-29T15:05:41Z</time>
      </trkpt>
      <trkpt lat="49.35648" lon="0.89393">
        <ele>131.36</ele>
        <time>2021-07-29T15:05:42Z</time>
      </trkpt>
      <trkpt lat="49.35649" lon="0.89375">
        <ele>132.32</ele>
        <time>2021-07-29T15:05:43Z</time>
      </trkpt>
      <trkpt lat="49.35649" lon="0.89356">
        <ele>133.28</ele>
        <time>2021-07-29T15:05:44Z</time>
      </trkpt>
      <trkpt lat="49.35651" lon="0.8921">
        <ele>130.4</ele>
        <time>2021-07-29T15:05:53Z</time>
      </trkpt>
      <trkpt lat="49.35651" lon="0.89206">
        <ele>130.4</ele>
        <time>2021-07-29T15:06:05Z</time>
      </trkpt>
      <trkpt lat="49.35651" lon="0.89174">
        <ele>130.4</ele>
        <time>2021-07-29T15:06:34Z</time>
      </trkpt>
      <trkpt lat="49.35651" lon="0.89036">
        <ele>129.92</ele>
        <time>2021-07-29T15:06:43Z</time>
      </trkpt>
      <trkpt lat="49.35654" lon="0.8872">
        <ele>128.95</ele>
        <time>2021-07-29T15:06:58Z</time>
      </trkpt>
      <trkpt lat="49.35647" lon="0.88494">
        <ele>126.07</ele>
        <time>2021-07-29T15:07:07Z</time>
      </trkpt>
      <trkpt lat="49.35659" lon="0.88429">
        <ele>125.11</ele>
        <time>2021-07-29T15:07:10Z</time>
      </trkpt>
      <trkpt lat="49.35714" lon="0.88243">
        <ele>125.11</ele>
        <time>2021-07-29T15:07:20Z</time>
      </trkpt>
      <trkpt lat="49.35827" lon="0.87867">
        <ele>129.92</ele>
        <time>2021-07-29T15:07:36Z</time>
      </trkpt>
      <trkpt lat="49.35857" lon="0.87653">
        <ele>131.84</ele>
        <time>2021-07-29T15:07:46Z</time>
      </trkpt>
      <trkpt lat="49.35874" lon="0.87313">
        <ele>129.43</ele>
        <time>2021-07-29T15:07:59Z</time>
      </trkpt>
      <trkpt lat="49.35899" lon="0.86826">
        <ele>132.8</ele>
        <time>2021-07-29T15:08:16Z</time>
      </trkpt>
      <trkpt lat="49.35906" lon="0.86695">
        <ele>136.16</ele>
        <time>2021-07-29T15:08:22Z</time>
      </trkpt>
      <trkpt lat="49.35908" lon="0.8665">
        <ele>134.24</ele>
        <time>2021-07-29T15:08:29Z</time>
      </trkpt>
    </trkseg>
  </trk>
</gpx>